createdAt,value
2022-12-01T00:01:24.992Z,102488.00
2022-12-01T00:03:52.252Z,102483.56
2022-12-01T00:06:21.322Z,102486.13
2022-12-01T00:09:11.452Z,102486.13
2022-12-01T00:11:40.092Z,102478.22
2022-12-01T00:14:07.034Z,102472.91
2022-12-01T00:16:34.777Z,102474.66
2022-12-01T00:19:02.201Z,102476.44
2022-12-01T00:21:29.513Z,102475.47
2022-12-01T00:23:58.769Z,102479.81
2022-12-01T00:26:26.971Z,102471.81
2022-12-01T00:28:58.826Z,102469.16
2022-12-01T00:31:27.560Z,102475.22
2022-12-01T00:33:55.271Z,102465.63
2022-12-01T00:36:23.068Z,102468.31
2022-12-01T00:38:55.760Z,102472.66
2022-12-01T00:41:24.725Z,102463.06
2022-12-01T00:43:52.184Z,102466.59
2022-12-01T00:46:19.357Z,102475.44
2022-12-01T00:48:46.713Z,102471.00
2022-12-01T00:51:13.673Z,102473.69
2022-12-01T00:53:40.666Z,102469.22
2022-12-01T00:56:08.177Z,102478.69
2022-12-01T00:58:35.508Z,102468.22
2022-12-01T01:01:03.309Z,102475.28
2022-12-01T01:03:32.496Z,102475.22
2022-12-01T01:06:07.272Z,102475.22
2022-12-01T01:08:34.432Z,102476.94
2022-12-01T01:11:02.182Z,102475.13
2022-12-01T01:13:29.838Z,102483.81
2022-12-01T01:16:15.763Z,102483.72
2022-12-01T01:18:43.547Z,102488.06
2022-12-01T01:21:15.559Z,102493.25
2022-12-01T01:23:43.015Z,102499.50
2022-12-01T01:26:19.125Z,102496.09
2022-12-01T01:28:47.670Z,102500.47
2022-12-01T01:31:22.041Z,102500.47
2022-12-01T01:33:49.627Z,102504.81
2022-12-01T01:36:18.328Z,102504.66
2022-12-01T01:38:46.454Z,102511.56
2022-12-01T01:41:14.491Z,102515.06
2022-12-01T01:43:50.731Z,102512.44
2022-12-01T01:46:29.085Z,102509.78
2022-12-01T01:49:09.777Z,102520.13
2022-12-01T01:51:51.180Z,102514.81
2022-12-01T01:54:28.432Z,102520.88
2022-12-01T01:56:57.649Z,102517.31
2022-12-01T01:59:36.278Z,102518.91
2022-12-01T02:02:09.031Z,102515.41
2022-12-01T02:04:42.344Z,102515.47
2022-12-01T02:07:11.812Z,102510.22
2022-12-01T02:09:38.933Z,102513.59
2022-12-01T02:12:34.989Z,102512.66
2022-12-01T02:15:19.356Z,102507.47
2022-12-01T02:18:07.776Z,102511.81
2022-12-01T02:21:08.861Z,102506.56
2022-12-01T02:24:25.461Z,102509.34
2022-12-01T02:27:21.620Z,102519.97
2022-12-01T02:30:02.438Z,102508.63
2022-12-01T02:32:50.537Z,102513.84
2022-12-01T02:35:48.519Z,102506.84
2022-12-01T02:38:55.634Z,102505.06
2022-12-01T02:41:23.125Z,102504.22
2022-12-01T02:44:29.553Z,102503.38
2022-12-01T02:47:10.657Z,102506.84
2022-12-01T02:49:49.802Z,102511.19
2022-12-01T02:52:19.021Z,102510.41
2022-12-01T02:54:48.352Z,102510.41
2022-12-01T02:57:16.912Z,102512.19
2022-12-01T02:59:50.955Z,102514.69
2022-12-01T03:02:44.246Z,102517.38
2022-12-01T03:05:48.953Z,102519.97
2022-12-01T03:08:39.474Z,102519.97
2022-12-01T03:11:07.002Z,102519.16
2022-12-01T03:13:57.434Z,102512.19
2022-12-01T03:16:42.662Z,102511.28
2022-12-01T03:19:18.425Z,102512.28
2022-12-01T03:22:01.465Z,102515.00
2022-12-01T03:24:32.992Z,102515.00
2022-12-01T03:27:02.752Z,102512.44
2022-12-01T03:29:43.973Z,102511.63
2022-12-01T03:32:37.145Z,102514.13
2022-12-01T03:35:39.238Z,102518.53
2022-12-01T03:38:19.515Z,102507.16
2022-12-01T03:40:51.068Z,102507.16
2022-12-01T03:43:32.905Z,102510.63
2022-12-01T03:46:18.504Z,102509.72
2022-12-01T03:48:46.639Z,102508.81
2022-12-01T03:51:48.565Z,102514.13
2022-12-01T03:54:47.285Z,102505.31
2022-12-01T03:57:36.043Z,102510.56
2022-12-01T04:00:04.517Z,102513.16
2022-12-01T04:02:32.353Z,102513.16
2022-12-01T04:04:59.631Z,102513.16
2022-12-01T04:07:26.852Z,102520.25
2022-12-01T04:09:53.819Z,102512.34
2022-12-01T04:12:30.110Z,102513.16
2022-12-01T04:15:04.328Z,102514.06
2022-12-01T04:17:32.026Z,102520.25
2022-12-01T04:19:59.144Z,102515.91
2022-12-01T04:22:27.334Z,102518.47
2022-12-01T04:24:54.654Z,102514.00
2022-12-01T04:27:22.074Z,102511.28
2022-12-01T04:29:49.572Z,102517.44
2022-12-01T04:32:17.313Z,102523.50
2022-12-01T04:34:44.851Z,102519.97
2022-12-01T04:37:12.961Z,102514.75
2022-12-01T04:39:44.496Z,102520.88
2022-12-01T04:42:13.335Z,102512.97
2022-12-01T04:44:43.957Z,102514.75
2022-12-01T04:47:12.568Z,102517.38
2022-12-01T04:49:43.602Z,102504.22
2022-12-01T04:52:21.098Z,102513.91
2022-12-01T04:54:48.081Z,102506.84
2022-12-01T04:57:15.226Z,102519.94
2022-12-01T04:59:42.413Z,102513.84
2022-12-01T05:02:09.615Z,102511.25
2022-12-01T05:04:38.823Z,102516.53
2022-12-01T05:07:06.065Z,102512.19
2022-12-01T05:09:33.211Z,102513.03
2022-12-01T05:12:00.305Z,102513.03
2022-12-01T05:14:27.620Z,102506.00
2022-12-01T05:16:55.223Z,102506.84
2022-12-01T05:19:41.182Z,102512.84
2022-12-01T05:22:08.412Z,102513.69
2022-12-01T05:24:35.520Z,102516.31
2022-12-01T05:27:02.719Z,102517.19
2022-12-01T05:29:29.923Z,102524.16
2022-12-01T05:31:57.310Z,102522.38
2022-12-01T05:34:24.448Z,102523.25
2022-12-01T05:36:51.524Z,102524.06
2022-12-01T05:39:18.909Z,102522.38
2022-12-01T05:41:45.855Z,102519.81
2022-12-01T05:44:12.955Z,102518.81
2022-12-01T05:46:40.343Z,102523.25
2022-12-01T05:49:07.898Z,102520.66
2022-12-01T05:51:35.110Z,102517.03
2022-12-01T05:54:02.928Z,102524.16
2022-12-01T05:56:30.209Z,102521.59
2022-12-01T05:58:57.464Z,102527.78
2022-12-01T06:01:24.553Z,102526.94
2022-12-01T06:03:53.577Z,102528.66
2022-12-01T06:06:20.952Z,102527.72
2022-12-01T06:08:48.236Z,102528.66
2022-12-01T06:11:15.212Z,102526.06
2022-12-01T06:13:42.443Z,102529.56
2022-12-01T06:16:09.683Z,102526.88
2022-12-01T06:18:39.006Z,102532.06
2022-12-01T06:21:07.119Z,102536.47
2022-12-01T06:23:34.910Z,102532.06
2022-12-01T06:26:02.324Z,102534.78
2022-12-01T06:28:29.721Z,102533.84
2022-12-01T06:31:02.762Z,102530.28
2022-12-01T06:33:33.878Z,102531.16
2022-12-01T06:36:04.600Z,102535.50
2022-12-01T06:38:34.277Z,102541.59
2022-12-01T06:41:03.715Z,102538.97
2022-12-01T06:43:30.984Z,102540.59
2022-12-01T06:46:02.038Z,102535.47
2022-12-01T06:48:30.126Z,102536.25
2022-12-01T06:50:58.743Z,102531.91
2022-12-01T06:53:27.416Z,102547.72
2022-12-01T06:55:59.953Z,102550.31
2022-12-01T06:58:27.136Z,102551.16
2022-12-01T07:00:54.755Z,102558.19
2022-12-01T07:03:21.806Z,102559.06
2022-12-01T07:06:02.669Z,102553.84
2022-12-01T07:08:31.813Z,102564.31
2022-12-01T07:11:12.482Z,102567.03
2022-12-01T07:13:42.269Z,102575.78
2022-12-01T07:16:09.897Z,102568.72
2022-12-01T07:18:47.428Z,102579.28
2022-12-01T07:21:15.968Z,102574.84
2022-12-01T07:23:43.365Z,102582.75
2022-12-01T07:26:14.522Z,102579.22
2022-12-01T07:28:42.376Z,102586.25
2022-12-01T07:31:16.521Z,102585.41
2022-12-01T07:33:44.039Z,102588.88
2022-12-01T07:36:12.411Z,102588.88
2022-12-01T07:38:41.856Z,102592.38
2022-12-01T07:41:15.365Z,102590.72
2022-12-01T07:43:43.409Z,102584.69
2022-12-01T07:46:13.649Z,102590.88
2022-12-01T07:48:43.035Z,102583.91
2022-12-01T07:51:16.616Z,102590.97
2022-12-01T07:53:45.662Z,102586.66
2022-12-01T07:56:13.421Z,102583.28
2022-12-01T07:58:43.679Z,102588.69
2022-12-01T08:01:14.987Z,102583.56
2022-12-01T08:03:42.579Z,102589.03
2022-12-01T08:06:11.168Z,102587.28
2022-12-01T08:08:41.166Z,102595.25
2022-12-01T08:11:22.251Z,102597.13
2022-12-01T08:13:54.069Z,102598.91
2022-12-01T08:16:23.543Z,102600.72
2022-12-01T08:18:52.766Z,102598.97
2022-12-01T08:21:24.871Z,102606.06
2022-12-01T08:23:56.149Z,102605.22
2022-12-01T08:26:26.148Z,102606.28
2022-12-01T08:28:53.428Z,102604.66
2022-12-01T08:31:26.175Z,102602.19
2022-12-01T08:33:53.891Z,102621.53
2022-12-01T08:36:22.619Z,102619.03
2022-12-01T08:38:53.523Z,102621.78
2022-12-01T08:41:21.465Z,102620.00
2022-12-01T08:43:57.914Z,102622.63
2022-12-01T08:46:28.286Z,102617.50
2022-12-01T08:48:57.506Z,102626.44
2022-12-01T08:51:26.408Z,102623.16
2022-12-01T08:53:56.313Z,102625.16
2022-12-01T08:56:38.160Z,102629.75
2022-12-01T08:59:06.203Z,102626.28
2022-12-01T09:01:35.131Z,102619.41
2022-12-01T09:04:06.789Z,102615.31
2022-12-01T09:06:42.933Z,102617.16
2022-12-01T09:09:13.741Z,102622.59
2022-12-01T09:11:43.696Z,102622.81
2022-12-01T09:14:16.385Z,102615.09
2022-12-01T09:16:46.397Z,102617.03
2022-12-01T09:19:20.580Z,102621.63
2022-12-01T09:21:51.181Z,102625.25
2022-12-01T09:24:18.165Z,102624.44
2022-12-01T09:26:45.377Z,102628.06
2022-12-01T09:29:14.806Z,102623.00
2022-12-01T09:31:43.175Z,102626.69
2022-12-01T09:34:19.426Z,102633.84
2022-12-01T09:36:47.775Z,102626.06
2022-12-01T09:39:20.122Z,102628.75
2022-12-01T09:42:09.051Z,102628.88
2022-12-01T09:44:56.213Z,102629.84
2022-12-01T09:47:34.838Z,102622.84
2022-12-01T09:50:13.342Z,102626.59
2022-12-01T09:52:51.442Z,102626.88
2022-12-01T09:55:23.183Z,102624.41
2022-12-01T09:57:56.697Z,102624.59
2022-12-01T10:00:47.252Z,102622.97
2022-12-01T10:03:37.023Z,102625.69
2022-12-01T10:06:28.045Z,102624.88
2022-12-01T10:09:44.426Z,102617.88
2022-12-01T10:12:22.644Z,102615.38
2022-12-01T10:14:50.574Z,102617.25
2022-12-01T10:17:40.102Z,102618.38
2022-12-01T10:20:19.547Z,102616.81
2022-12-01T10:23:07.513Z,102611.69
2022-12-01T10:26:23.710Z,102602.34
2022-12-01T10:29:12.715Z,102612.28
2022-12-01T10:32:03.146Z,102606.41
2022-12-01T10:34:38.459Z,102600.41
2022-12-01T10:37:09.290Z,102605.72
2022-12-01T10:39:44.611Z,102603.97
2022-12-01T10:42:26.966Z,102603.97
2022-12-01T10:44:56.566Z,102602.28
2022-12-01T10:47:28.876Z,102593.72
2022-12-01T10:49:56.384Z,102594.63
2022-12-01T10:52:40.885Z,102598.34
2022-12-01T10:55:22.916Z,102595.09
2022-12-01T10:57:51.152Z,102590.59
2022-12-01T11:03:33.482Z,102586.16
2022-12-01T11:06:04.508Z,102579.19
2022-12-01T11:08:39.046Z,102581.97
2022-12-01T11:11:21.443Z,102580.25
2022-12-01T11:13:48.864Z,102581.19
2022-12-01T11:16:45.643Z,102582.28
2022-12-01T11:19:33.092Z,102577.13
2022-12-01T11:22:12.887Z,102576.38
2022-12-01T11:25:05.215Z,102574.66
2022-12-01T11:27:46.075Z,102575.50
2022-12-01T11:30:22.763Z,102569.38
2022-12-01T11:33:02.275Z,102573.63
2022-12-01T11:35:36.308Z,102571.66
2022-12-01T11:38:28.814Z,102559.22
2022-12-01T11:40:56.553Z,102572.31
2022-12-01T11:43:35.997Z,102562.75
2022-12-01T11:46:09.136Z,102563.03
2022-12-01T11:48:36.823Z,102562.38
2022-12-01T11:51:06.069Z,102557.19
2022-12-01T11:53:36.923Z,102559.13
2022-12-01T11:56:30.306Z,102553.09
2022-12-01T11:59:10.353Z,102545.34
2022-12-01T12:02:06.119Z,102544.56
2022-12-01T12:05:15.377Z,102551.56
2022-12-01T12:07:57.496Z,102547.28
2022-12-01T12:10:39.879Z,102547.38
2022-12-01T12:14:21.246Z,102550.06
2022-12-01T12:17:15.235Z,102539.50
2022-12-01T12:20:24.246Z,102533.34
2022-12-01T12:23:01.802Z,102535.09
2022-12-01T12:26:11.599Z,102539.34
2022-12-01T12:28:43.980Z,102543.63
2022-12-01T12:32:00.434Z,102533.81
2022-12-01T12:34:45.443Z,102538.88
2022-12-01T12:37:33.700Z,102535.31
2022-12-01T12:40:38.375Z,102530.91
2022-12-01T12:46:56.435Z,102522.13
2022-12-01T12:49:45.392Z,102526.53
2022-12-01T12:52:35.110Z,102520.97
2022-12-01T12:55:39.165Z,102519.75
2022-12-01T12:58:16.767Z,102517.56
2022-12-01T13:00:56.184Z,102514.69
2022-12-01T13:04:00.206Z,102514.41
2022-12-01T13:06:43.590Z,102514.28
2022-12-01T13:09:31.806Z,102513.34
2022-12-01T13:12:15.772Z,102510.03
2022-12-01T13:15:16.058Z,102505.97
2022-12-01T13:18:04.093Z,102499.09
2022-12-01T13:20:33.720Z,102505.31
2022-12-01T13:23:03.085Z,102495.69
2022-12-01T13:25:39.537Z,102507.06
2022-12-01T13:28:23.898Z,102504.06
2022-12-01T13:31:10.219Z,102505.25
2022-12-01T13:33:45.667Z,102493.34
2022-12-01T13:39:15.117Z,102487.66
2022-12-01T13:41:45.369Z,102482.19
2022-12-01T13:44:30.469Z,102475.00
2022-12-01T13:47:12.638Z,102476.78
2022-12-01T13:49:46.602Z,102483.00
2022-12-01T13:52:22.507Z,102478.00
2022-12-01T13:55:27.935Z,102479.97
2022-12-01T13:58:33.715Z,102481.88
2022-12-01T14:01:19.900Z,102477.50
2022-12-01T14:04:02.722Z,102475.69
2022-12-01T14:06:50.276Z,102468.44
2022-12-01T14:09:26.884Z,102468.25
2022-12-01T14:12:19.925Z,102467.31
2022-12-01T14:15:16.206Z,102472.38
2022-12-01T14:17:45.992Z,102469.66
2022-12-01T14:20:23.019Z,102470.47
2022-12-01T14:23:24.328Z,102473.88
2022-12-01T14:26:22.920Z,102478.13
2022-12-01T14:28:56.003Z,102480.66
2022-12-01T14:31:33.429Z,102479.72
2022-12-01T14:34:20.624Z,102478.69
2022-12-01T14:37:34.043Z,102483.88
2022-12-01T14:40:21.364Z,102486.41
2022-12-01T14:43:12.281Z,102477.66
2022-12-01T14:45:49.756Z,102486.41
2022-12-01T14:48:24.442Z,102483.75
2022-12-01T14:51:05.778Z,102496.72
2022-12-01T14:53:36.431Z,102489.66
2022-12-01T14:56:16.273Z,102491.44
2022-12-01T14:59:01.984Z,102489.66
2022-12-01T15:01:35.197Z,102484.31
2022-12-01T15:04:06.490Z,102481.59
2022-12-01T15:06:36.552Z,102474.50
2022-12-01T15:09:34.393Z,102477.91
2022-12-01T15:12:09.416Z,102475.94
2022-12-01T15:14:49.129Z,102482.69
2022-12-01T15:17:31.758Z,102476.41
2022-12-01T15:19:59.382Z,102472.72
2022-12-01T15:22:31.429Z,102474.25
2022-12-01T15:25:15.750Z,102478.41
2022-12-01T15:27:44.031Z,102485.38
2022-12-01T15:30:16.743Z,102476.44
2022-12-01T15:32:45.945Z,102490.34
2022-12-01T15:35:21.775Z,102485.84
2022-12-01T15:37:50.974Z,102487.59
2022-12-01T15:43:23.014Z,102497.06
2022-12-01T15:45:56.415Z,102493.56
2022-12-01T15:48:36.438Z,102492.56
2022-12-01T15:51:27.038Z,102502.97
2022-12-01T15:54:01.019Z,102504.72
2022-12-01T15:56:38.283Z,102500.25
2022-12-01T15:59:15.712Z,102497.53
2022-12-01T16:01:45.388Z,102501.78
2022-12-01T16:04:20.436Z,102502.63
2022-12-01T16:06:58.199Z,102496.50
2022-12-01T16:09:37.632Z,102498.16
2022-12-01T16:12:16.463Z,102505.97
2022-12-01T16:14:53.412Z,102498.13
2022-12-01T16:17:23.385Z,102500.69
2022-12-01T16:20:33.554Z,102499.00
2022-12-01T16:23:15.521Z,102499.00
2022-12-01T16:25:45.952Z,102494.59
2022-12-01T16:28:30.769Z,102502.53
2022-12-01T16:30:58.222Z,102500.75
2022-12-01T16:33:28.499Z,102494.66
2022-12-01T16:35:58.911Z,102497.28
2022-12-01T16:38:28.863Z,102501.63
2022-12-01T16:41:01.869Z,102505.97
2022-12-01T16:43:29.715Z,102503.34
2022-12-01T16:46:04.712Z,102500.75
2022-12-01T16:48:32.001Z,102508.59
2022-12-01T16:51:05.853Z,102505.09
2022-12-01T16:53:32.956Z,102505.78
2022-12-01T16:56:02.466Z,102506.69
2022-12-01T16:58:29.857Z,102497.88
2022-12-01T17:00:57.574Z,102499.59
2022-12-01T17:03:27.802Z,102497.94
2022-12-01T17:05:55.459Z,102494.41
2022-12-01T17:08:22.775Z,102510.19
2022-12-01T17:10:51.702Z,102505.72
2022-12-01T17:13:24.801Z,102499.59
2022-12-01T17:15:54.806Z,102505.72
2022-12-01T17:18:25.068Z,102502.22
2022-12-01T17:21:09.284Z,102502.22
2022-12-01T17:23:41.228Z,102498.72
2022-12-01T17:26:15.589Z,102511.81
2022-12-01T17:28:42.686Z,102503.94
2022-12-01T17:31:11.665Z,102503.91
2022-12-01T17:33:39.681Z,102504.78
2022-12-01T17:36:11.518Z,102510.03
2022-12-01T17:38:41.818Z,102505.63
2022-12-01T17:41:13.665Z,102507.34
2022-12-01T17:43:41.534Z,102501.22
2022-12-01T17:46:12.204Z,102496.78
2022-12-01T17:48:46.604Z,102495.00
2022-12-01T17:51:15.444Z,102502.81
2022-12-01T17:53:42.719Z,102503.69
2022-12-01T17:56:13.146Z,102510.66
2022-12-01T17:58:41.096Z,102501.88
2022-12-01T18:01:16.294Z,102503.59
2022-12-01T18:03:43.940Z,102508.84
2022-12-01T18:06:11.687Z,102509.66
2022-12-01T18:08:39.806Z,102510.56
2022-12-01T18:11:10.367Z,102511.44
2022-12-01T18:13:46.952Z,102511.44
2022-12-01T18:16:21.741Z,102511.50
2022-12-01T18:18:49.681Z,102509.66
2022-12-01T18:21:20.245Z,102511.44
2022-12-01T18:23:56.733Z,102504.44
2022-12-01T18:26:26.400Z,102499.25
2022-12-01T18:29:04.682Z,102493.13
2022-12-01T18:31:32.287Z,102504.47
2022-12-01T18:34:05.108Z,102491.28
2022-12-01T18:36:35.577Z,102492.97
2022-12-01T18:39:04.783Z,102494.66
2022-12-01T18:41:32.149Z,102496.38
2022-12-01T18:43:59.281Z,102498.03
2022-12-01T18:46:26.490Z,102493.69
2022-12-01T18:49:00.911Z,102488.47
2022-12-01T18:51:30.067Z,102494.53
2022-12-01T18:53:59.893Z,102496.22
2022-12-01T18:56:27.570Z,102493.50
2022-12-01T18:59:04.921Z,102495.22
2022-12-01T19:01:41.263Z,102501.25
2022-12-01T19:04:10.172Z,102495.13
2022-12-01T19:06:41.236Z,102492.44
2022-12-01T19:09:10.611Z,102503.75
2022-12-01T19:11:40.994Z,102493.28
2022-12-01T19:14:17.346Z,102492.44
2022-12-01T19:16:46.226Z,102496.84
2022-12-01T19:19:13.648Z,102493.34
2022-12-01T19:21:40.853Z,102495.97
2022-12-01T19:24:09.344Z,102493.41
2022-12-01T19:26:36.366Z,102496.00
2022-12-01T19:29:04.294Z,102495.13
2022-12-01T19:31:31.653Z,102498.56
2022-12-01T19:33:58.883Z,102492.44
2022-12-01T19:36:28.107Z,102497.69
2022-12-01T19:38:58.193Z,102501.97
2022-12-01T19:41:26.370Z,102509.81
2022-12-01T19:43:54.181Z,102501.00
2022-12-01T19:46:27.214Z,102500.94
2022-12-01T19:49:00.738Z,102500.94
2022-12-01T19:51:37.640Z,102490.34
2022-12-01T19:54:21.119Z,102497.38
2022-12-01T19:56:57.430Z,102492.13
2022-12-01T19:59:24.896Z,102499.09
2022-12-01T20:01:53.334Z,102492.03
2022-12-01T20:04:20.972Z,102501.66
2022-12-01T20:06:48.650Z,102497.25
2022-12-01T20:09:15.966Z,102492.81
2022-12-01T20:11:43.199Z,102491.03
2022-12-01T20:14:10.763Z,102491.00
2022-12-01T20:16:37.990Z,102493.56
2022-12-01T20:19:06.635Z,102491.78
2022-12-01T20:21:39.250Z,102489.97
2022-12-01T20:24:08.759Z,102497.84
2022-12-01T20:26:46.927Z,102498.72
2022-12-01T20:29:18.192Z,102494.28
2022-12-01T20:31:46.625Z,102488.13
2022-12-01T20:34:23.762Z,102490.72
2022-12-01T20:36:52.176Z,102497.69
2022-12-01T20:39:19.785Z,102502.03
2022-12-01T20:41:47.118Z,102505.50
2022-12-01T20:44:16.479Z,102502.13
2022-12-01T20:46:47.737Z,102500.41
2022-12-01T20:49:17.441Z,102498.59
2022-12-01T20:51:45.313Z,102499.41
2022-12-01T20:54:30.587Z,102488.06
2022-12-01T20:56:58.653Z,102486.41
2022-12-01T20:59:26.270Z,102485.59
2022-12-01T21:01:53.610Z,102480.34
2022-12-01T21:04:20.757Z,102480.25
2022-12-01T21:06:50.118Z,102476.69
2022-12-01T21:09:19.287Z,102469.69
2022-12-01T21:12:09.234Z,102468.78
2022-12-01T21:15:36.727Z,102473.19
2022-12-01T21:18:20.495Z,102467.84
2022-12-01T21:20:50.262Z,102465.06
2022-12-01T21:23:18.061Z,102468.53
2022-12-01T21:25:45.291Z,102465.00
2022-12-01T21:28:24.895Z,102460.63
2022-12-01T21:31:14.804Z,102463.19
2022-12-01T21:33:42.549Z,102464.06
2022-12-01T21:36:20.798Z,102467.53
2022-12-01T21:38:53.950Z,102456.16
2022-12-01T21:41:31.007Z,102456.94
2022-12-01T21:44:12.625Z,102457.84
2022-12-01T21:46:42.386Z,102451.72
2022-12-01T21:49:19.700Z,102455.22
2022-12-01T21:51:50.401Z,102458.78
2022-12-01T21:54:21.283Z,102450.03
2022-12-01T21:56:49.600Z,102453.53
2022-12-01T21:59:22.801Z,102443.91
2022-12-01T22:01:54.979Z,102443.03
2022-12-01T22:04:30.516Z,102436.94
2022-12-01T22:06:58.361Z,102431.66
2022-12-01T22:09:36.260Z,102429.22
2022-12-01T22:12:25.940Z,102418.69
2022-12-01T22:15:00.017Z,102419.63
2022-12-01T22:17:28.094Z,102413.44
2022-12-01T22:20:04.839Z,102416.00
2022-12-01T22:22:32.914Z,102404.59
2022-12-01T22:25:26.841Z,102406.28
2022-12-01T22:27:54.570Z,102403.63
2022-12-01T22:30:24.008Z,102406.22
2022-12-01T22:33:07.305Z,102408.03
2022-12-01T22:35:48.650Z,102408.16
2022-12-01T22:38:33.512Z,102419.63
2022-12-01T22:41:12.215Z,102415.22
2022-12-01T22:43:57.119Z,102416.13
2022-12-01T22:46:40.084Z,102420.47
2022-12-01T22:49:20.744Z,102411.72
2022-12-01T22:52:28.358Z,102417.78
2022-12-01T22:54:55.465Z,102416.00
2022-12-01T22:57:37.355Z,102416.97
2022-12-01T23:00:21.474Z,102419.63
2022-12-01T23:02:49.778Z,102426.47
2022-12-01T23:05:29.489Z,102426.47
2022-12-01T23:07:57.530Z,102427.22
2022-12-01T23:10:33.702Z,102414.13
2022-12-01T23:13:13.529Z,102414.13
2022-12-01T23:15:45.559Z,102417.69
2022-12-01T23:18:41.822Z,102415.13
2022-12-01T23:21:09.370Z,102414.22
2022-12-01T23:23:40.032Z,102409.75
2022-12-01T23:26:09.129Z,102413.19
2022-12-01T23:28:38.959Z,102404.44
2022-12-01T23:31:06.514Z,102400.00
2022-12-01T23:33:35.063Z,102404.34
2022-12-01T23:36:24.608Z,102405.22
2022-12-01T23:38:57.637Z,102403.44
2022-12-01T23:41:39.619Z,102395.59
2022-12-01T23:44:35.724Z,102400.78
2022-12-01T23:47:03.375Z,102398.97
2022-12-01T23:49:34.780Z,102401.53
2022-12-01T23:52:05.942Z,102391.06
2022-12-01T23:54:34.923Z,102390.16
2022-12-01T23:57:21.884Z,102397.06
2022-12-01T23:59:55.204Z,102390.00
